Bookmark and Share
Track history (hours):
 

Mascot

Last reported at 2013-May-17 16:16 UTC. Time now 2014-Apr-24 13:47 UTC.
Position N 01°11' E 103°40'.
Warning: this ship's position is months out of date.

Length 200 m; draft 7.4 m.

Type: Cargo ship. MMSI: 308455000.

NotesDate/timePositionNaut miles runAvg speedWind from/ knotsBaromVisibWave heightAir tempDewpointWater temp
2013-May-17 16:16N 01°11' E 103°40'811.2
2013-May-17 15:33N 01°11' E 103°48'  
2013-May-11 06:22N 22°54' E 117°28'7611.1
2013-May-10 23:28N 23°53' E 118°21'20711.3
2013-May-10 05:08N 26°20' E 121°03'711.1
2013-May-10 04:31N 26°25' E 121°07'1111.2
2013-May-10 03:33N 26°34' E 121°15'1111.0
2013-May-10 02:33N 26°43' E 121°22'1111.4
2013-May-10 01:34N 26°52' E 121°29'1211.3
2013-May-10 00:32N 27°00' E 121°38'1211.7
2013-May-09 23:33N 27°09' E 121°47'1211.6
2013-May-09 22:33N 27°18' E 121°55'2211.1
2013-May-09 20:33N 27°34' E 122°12'1110.6
2013-May-09 19:33N 27°42' E 122°20'1010.5
2013-May-09 18:33N 27°48' E 122°30'1010.4
2013-May-09 17:33N 27°55' E 122°39'1111.2
2013-May-09 16:33N 28°04' E 122°47'1110.9
2013-May-09 15:33N 28°12' E 122°54'1110.8
2013-May-09 14:32N 28°21' E 123°02'1110.8
2013-May-09 13:33N 28°28' E 123°10'1110.8
2013-May-09 12:33N 28°35' E 123°20'1110.5
2013-May-09 11:30N 28°44' E 123°28'1010.2
2013-May-09 10:33N 28°52' E 123°34'1110.6
2013-May-09 09:33N 29°03' E 123°33'5811.4
2013-May-09 04:28N 30°01' E 123°35'1010.9
2013-May-09 03:33N 30°11' E 123°35'10 9.9
2013-May-09 02:33N 30°21' E 123°35'1010.1
2013-May-09 01:33N 30°31' E 123°35'19 9.4
2013-May-08 23:33N 30°48' E 123°25'1010.4
2013-May-08 22:33N 30°54' E 123°15'1111.0
2013-May-08 21:33N 31°01' E 123°06'1110.8
2013-May-08 20:33N 31°05' E 122°54'1212.4
2013-May-08 19:33N 31°05' E 122°40'1312.9
2013-May-08 18:33N 31°06' E 122°24'1313.2
2013-May-08 17:33N 31°11' E 122°10'1212.5
2013-May-08 16:33N 31°15' E 121°57'1010.3
2013-May-08 15:33N 31°18' E 121°45'6 6.1
2013-May-08 14:33N 31°21' E 121°39'7 7.3
2013-May-08 13:32N 31°25' E 121°31'6 6.2
2013-May-08 12:33N 31°29' E 121°26'1110.5
2013-May-08 11:33N 31°36' E 121°17'1211.6
2013-May-08 10:33N 31°44' E 121°07'1110.9
2013-May-08 09:33N 31°48' E 120°55'1111.0
2013-May-08 08:33N 31°59' E 120°50'9 9.5
2013-May-08 07:33N 31°60' E 120°39'9 9.3
2013-May-08 06:33N 32°04' E 120°30'2010.0
2013-May-08 04:33N 31°56' E 120°08'10 9.6
2013-May-08 03:33N 32°01' E 119°58'1511.3
2013-May-08 02:14N 32°15' E 119°52'  

Dump ship's entire track history

sailing weather and tide predictions

Mascot — C6IM4 — position and weather